createdAt,value
2024-03-10T00:01:34.385Z,24.90
2024-03-10T00:04:03.785Z,24.90
2024-03-10T00:06:33.311Z,25.00
2024-03-10T00:09:02.703Z,25.00
2024-03-10T00:11:32.352Z,25.00
2024-03-10T00:14:02.274Z,25.00
2024-03-10T00:16:31.728Z,25.00
2024-03-10T00:19:01.241Z,25.00
2024-03-10T00:21:31.225Z,25.00
2024-03-10T00:24:02.490Z,25.10
2024-03-10T00:26:32.578Z,25.10
2024-03-10T00:29:02.098Z,25.10
2024-03-10T00:31:32.783Z,25.10
2024-03-10T00:34:02.266Z,25.10
2024-03-10T00:36:31.613Z,25.10
2024-03-10T00:39:01.226Z,25.10
2024-03-10T00:41:30.715Z,25.20
2024-03-10T00:44:00.420Z,25.20
2024-03-10T00:46:30.614Z,25.30
2024-03-10T00:49:00.973Z,25.30
2024-03-10T00:51:30.399Z,25.40
2024-03-10T00:53:59.684Z,25.40
2024-03-10T00:56:32.187Z,25.50
2024-03-10T00:59:01.808Z,25.60
2024-03-10T01:01:31.921Z,25.60
2024-03-10T01:04:01.378Z,25.70
2024-03-10T01:06:30.718Z,25.70
2024-03-10T01:09:01.565Z,25.80
2024-03-10T01:11:31.115Z,25.80
2024-03-10T01:14:03.081Z,25.80
2024-03-10T01:16:32.697Z,25.90
2024-03-10T01:19:02.204Z,26.00
2024-03-10T01:21:31.694Z,26.00
2024-03-10T01:24:02.570Z,26.10
2024-03-10T01:26:33.699Z,26.10
2024-03-10T01:29:03.820Z,26.20
2024-03-10T01:31:33.675Z,26.20
2024-03-10T01:34:03.380Z,26.30
2024-03-10T01:36:33.536Z,26.30
2024-03-10T01:39:03.260Z,26.40
2024-03-10T01:41:35.841Z,26.40
2024-03-10T01:44:06.359Z,26.40
2024-03-10T01:46:40.193Z,26.50
2024-03-10T01:49:10.744Z,26.50
2024-03-10T01:51:44.135Z,26.60
2024-03-10T01:54:15.970Z,26.60
2024-03-10T01:56:46.513Z,26.60
2024-03-10T01:59:16.266Z,26.70
2024-03-10T02:01:48.422Z,26.80
2024-03-10T02:04:22.469Z,26.80
2024-03-10T02:06:52.570Z,26.90
2024-03-10T02:09:23.381Z,27.00
2024-03-10T02:11:53.146Z,27.00
2024-03-10T02:14:22.756Z,27.10
2024-03-10T02:16:52.340Z,27.10
2024-03-10T02:19:21.745Z,27.10
2024-03-10T02:21:51.187Z,27.20
2024-03-10T02:24:33.880Z,27.20
2024-03-10T02:27:03.737Z,27.20
2024-03-10T02:29:51.903Z,27.30
2024-03-10T02:32:39.382Z,27.30
2024-03-10T02:35:28.061Z,27.30
2024-03-10T02:38:15.911Z,27.30
2024-03-10T02:41:04.091Z,27.30
2024-03-10T02:43:51.646Z,27.40
2024-03-10T02:46:42.224Z,27.40
2024-03-10T02:49:12.766Z,27.50
2024-03-10T02:51:45.916Z,27.70
2024-03-10T02:54:15.515Z,27.70
2024-03-10T02:56:45.081Z,27.90
2024-03-10T02:59:14.499Z,28.00
2024-03-10T03:01:43.917Z,28.10
2024-03-10T03:04:13.288Z,28.20
2024-03-10T03:06:42.888Z,28.20
2024-03-10T03:09:12.375Z,28.20
2024-03-10T03:11:42.703Z,28.20
2024-03-10T03:14:12.978Z,28.30
2024-03-10T03:16:45.382Z,28.20
2024-03-10T03:19:15.493Z,28.20
2024-03-10T03:21:48.124Z,28.20
2024-03-10T03:24:17.656Z,28.20
2024-03-10T03:26:47.058Z,28.20
2024-03-10T03:29:16.491Z,28.20
2024-03-10T03:31:45.980Z,28.30
2024-03-10T03:34:15.544Z,28.30
2024-03-10T03:36:46.131Z,28.30
2024-03-10T03:39:15.812Z,28.40
2024-03-10T03:41:45.156Z,28.40
2024-03-10T03:44:14.646Z,28.50
2024-03-10T03:46:44.266Z,28.50
2024-03-10T03:49:15.965Z,28.50
2024-03-10T03:51:46.403Z,28.60
2024-03-10T03:54:17.154Z,28.70
2024-03-10T03:56:46.589Z,28.80
2024-03-10T03:59:19.220Z,28.90
2024-03-10T04:01:48.710Z,29.00
2024-03-10T04:04:18.618Z,29.10
2024-03-10T04:06:48.276Z,29.30
2024-03-10T04:09:20.272Z,29.40
2024-03-10T04:11:49.830Z,29.60
2024-03-10T04:14:19.705Z,29.70
2024-03-10T04:16:52.077Z,29.80
2024-03-10T04:19:32.271Z,30.00
2024-03-10T04:22:05.911Z,30.10
2024-03-10T04:24:37.568Z,30.20
2024-03-10T04:27:13.015Z,30.30
2024-03-10T04:29:44.593Z,30.50
2024-03-10T04:32:14.996Z,30.60
2024-03-10T04:34:44.807Z,30.80
2024-03-10T04:37:14.698Z,30.90
2024-03-10T04:39:44.212Z,31.00
2024-03-10T04:42:14.536Z,31.10
2024-03-10T04:44:46.211Z,31.30
2024-03-10T04:47:15.700Z,31.40
2024-03-10T04:49:45.593Z,31.50
2024-03-10T04:52:15.191Z,31.60
2024-03-10T04:54:44.587Z,31.80
2024-03-10T04:57:14.158Z,31.90
2024-03-10T04:59:43.670Z,32.00
2024-03-10T05:02:13.188Z,32.10
2024-03-10T05:04:42.706Z,32.30
2024-03-10T05:07:12.429Z,32.40
2024-03-10T05:09:43.170Z,32.50
2024-03-10T05:12:14.800Z,32.60
2024-03-10T05:14:44.333Z,32.70
2024-03-10T05:17:13.938Z,32.80
2024-03-10T05:19:47.181Z,33.00
2024-03-10T05:22:19.731Z,33.10
2024-03-10T05:24:49.242Z,33.10
2024-03-10T05:27:18.612Z,33.30
2024-03-10T05:29:48.040Z,33.30
2024-03-10T05:32:18.188Z,33.40
2024-03-10T05:34:48.879Z,33.50
2024-03-10T05:37:18.370Z,33.50
2024-03-10T05:39:47.743Z,33.60
2024-03-10T05:42:17.696Z,33.50
2024-03-10T05:44:47.121Z,33.60
2024-03-10T05:47:16.458Z,33.70
2024-03-10T05:49:47.019Z,33.70
2024-03-10T05:52:18.946Z,33.80
2024-03-10T05:54:49.810Z,33.70
2024-03-10T05:57:19.637Z,33.70
2024-03-10T05:59:49.500Z,33.80
2024-03-10T06:02:19.193Z,33.90
2024-03-10T06:04:48.644Z,33.90
2024-03-10T06:07:18.127Z,34.00
2024-03-10T06:09:47.496Z,34.10
2024-03-10T06:12:16.995Z,34.20
2024-03-10T06:14:46.432Z,34.20
2024-03-10T06:17:16.033Z,34.20
2024-03-10T06:20:03.908Z,34.30
2024-03-10T06:22:51.192Z,34.20
2024-03-10T06:25:32.797Z,34.20
2024-03-10T06:28:02.197Z,34.20
2024-03-10T06:30:31.593Z,34.20
2024-03-10T06:33:01.292Z,34.20
2024-03-10T06:35:31.180Z,34.20
2024-03-10T06:38:02.441Z,34.20
2024-03-10T06:40:31.935Z,34.10
2024-03-10T06:43:02.680Z,34.10
2024-03-10T06:45:32.425Z,34.10
2024-03-10T06:48:02.064Z,34.00
2024-03-10T06:50:34.282Z,34.00
2024-03-10T06:53:05.112Z,34.10
2024-03-10T06:55:34.915Z,34.20
2024-03-10T06:58:07.744Z,34.30
2024-03-10T07:00:37.329Z,34.50
2024-03-10T07:03:07.307Z,34.70
2024-03-10T07:05:37.090Z,34.80
2024-03-10T07:08:06.913Z,34.90
2024-03-10T07:10:40.265Z,35.00
2024-03-10T07:13:13.569Z,35.10
2024-03-10T07:15:43.041Z,35.20
2024-03-10T07:18:12.506Z,35.30
2024-03-10T07:20:42.076Z,35.40
2024-03-10T07:23:11.872Z,35.50
2024-03-10T07:25:41.422Z,35.50
2024-03-10T07:28:10.746Z,35.50
2024-03-10T07:30:42.655Z,35.60
2024-03-10T07:33:12.237Z,35.60
2024-03-10T07:35:42.287Z,35.70
2024-03-10T07:38:12.130Z,35.70
2024-03-10T07:40:41.541Z,35.70
2024-03-10T07:43:11.038Z,35.80
2024-03-10T07:45:40.445Z,35.80
2024-03-10T07:48:10.317Z,35.80
2024-03-10T07:50:39.966Z,35.90
2024-03-10T07:53:09.371Z,35.90
2024-03-10T07:55:39.163Z,36.00
2024-03-10T07:58:09.047Z,36.00
2024-03-10T08:00:38.499Z,36.00
2024-03-10T08:03:08.164Z,35.90
2024-03-10T08:05:38.224Z,35.90
2024-03-10T08:08:08.113Z,36.00
2024-03-10T08:10:37.560Z,36.00
2024-03-10T08:13:07.203Z,36.00
2024-03-10T08:15:36.983Z,36.00
2024-03-10T08:18:06.877Z,36.00
2024-03-10T08:20:37.815Z,36.10
2024-03-10T08:23:08.145Z,36.10
2024-03-10T08:25:37.926Z,36.10
2024-03-10T08:28:07.940Z,36.00
2024-03-10T08:30:37.395Z,36.00
2024-03-10T08:33:08.508Z,36.00
2024-03-10T08:35:40.076Z,35.90
2024-03-10T08:38:09.568Z,35.90
2024-03-10T08:40:39.369Z,35.80
2024-03-10T08:43:09.767Z,35.80
2024-03-10T08:45:40.783Z,35.80
2024-03-10T08:48:11.402Z,35.80
2024-03-10T08:50:42.862Z,35.80
2024-03-10T08:53:12.493Z,35.80
2024-03-10T08:55:43.110Z,35.80
2024-03-10T08:58:12.472Z,35.80
2024-03-10T09:00:42.066Z,35.80
2024-03-10T09:03:14.424Z,35.90
2024-03-10T09:05:43.918Z,35.90
2024-03-10T09:08:15.873Z,36.00
2024-03-10T09:10:53.406Z,35.90
2024-03-10T09:13:28.436Z,35.90
2024-03-10T09:15:57.972Z,35.90
2024-03-10T09:18:27.964Z,35.90
2024-03-10T09:21:00.079Z,35.80
2024-03-10T09:23:30.313Z,35.70
2024-03-10T09:26:02.898Z,35.70
2024-03-10T09:28:32.601Z,35.70
2024-03-10T09:31:02.266Z,35.60
2024-03-10T09:33:31.781Z,35.60
2024-03-10T09:36:01.230Z,35.50
2024-03-10T09:38:30.715Z,35.50
2024-03-10T09:41:02.126Z,35.40
2024-03-10T09:43:33.594Z,35.40
2024-03-10T09:46:03.879Z,35.40
2024-03-10T09:48:34.772Z,35.40
2024-03-10T09:51:05.143Z,35.30
2024-03-10T09:53:34.662Z,35.30
2024-03-10T09:56:04.733Z,35.30
2024-03-10T09:58:49.704Z,35.20
2024-03-10T10:01:23.117Z,35.20
2024-03-10T10:03:54.936Z,35.10
2024-03-10T10:06:28.543Z,35.00
2024-03-10T10:08:57.956Z,34.90
2024-03-10T10:11:28.244Z,34.80
2024-03-10T10:14:17.961Z,34.70
2024-03-10T10:17:05.318Z,34.70
2024-03-10T10:19:36.590Z,34.60
2024-03-10T10:22:07.919Z,34.50
2024-03-10T10:24:38.367Z,34.50
2024-03-10T10:27:08.123Z,34.50
2024-03-10T10:29:54.594Z,34.40
2024-03-10T10:32:26.412Z,34.40
2024-03-10T10:34:58.808Z,34.30
2024-03-10T10:37:36.418Z,34.20
2024-03-10T10:40:13.391Z,34.20
2024-03-10T10:42:53.851Z,34.10
2024-03-10T10:45:31.179Z,34.00
2024-03-10T10:48:03.465Z,34.00
2024-03-10T10:50:36.647Z,33.90
2024-03-10T10:53:09.188Z,33.80
2024-03-10T10:55:42.347Z,33.70
2024-03-10T10:58:18.880Z,33.60
2024-03-10T11:01:02.037Z,33.50
2024-03-10T11:03:43.721Z,33.40
2024-03-10T11:06:36.347Z,33.30
2024-03-10T11:09:16.809Z,33.30
2024-03-10T11:11:51.056Z,33.20
2024-03-10T11:14:24.515Z,33.10
2024-03-10T11:17:18.976Z,33.00
2024-03-10T11:19:55.105Z,32.90
2024-03-10T11:22:34.144Z,32.80
2024-03-10T11:25:18.804Z,32.80
2024-03-10T11:27:49.068Z,32.70
2024-03-10T11:30:43.169Z,32.60
2024-03-10T11:33:15.815Z,32.50
2024-03-10T11:35:46.147Z,32.40
2024-03-10T11:38:20.005Z,32.40
2024-03-10T11:41:01.778Z,32.30
2024-03-10T11:43:32.020Z,32.20
2024-03-10T11:46:01.453Z,32.10
2024-03-10T11:48:34.348Z,32.00
2024-03-10T11:51:04.449Z,31.90
2024-03-10T11:53:36.813Z,31.90
2024-03-10T11:56:06.775Z,31.80
2024-03-10T11:58:39.177Z,31.70
2024-03-10T12:01:10.820Z,31.70
2024-03-10T12:03:42.982Z,31.60
2024-03-10T12:06:15.888Z,31.60
2024-03-10T12:08:47.157Z,31.50
2024-03-10T12:11:18.093Z,31.50
2024-03-10T12:13:53.802Z,31.50
2024-03-10T12:16:24.356Z,31.50
2024-03-10T12:18:53.879Z,31.50
2024-03-10T12:21:29.957Z,31.40
2024-03-10T12:24:02.772Z,31.40
2024-03-10T12:26:34.885Z,31.40
2024-03-10T12:29:06.070Z,31.30
2024-03-10T12:31:39.645Z,31.20
2024-03-10T12:34:10.088Z,31.20
2024-03-10T12:36:39.461Z,31.20
2024-03-10T12:39:13.761Z,31.10
2024-03-10T12:41:43.175Z,31.10
2024-03-10T12:44:15.612Z,31.00
2024-03-10T12:46:45.191Z,31.00
2024-03-10T12:49:17.711Z,31.00
2024-03-10T12:51:50.937Z,30.90
2024-03-10T12:54:20.318Z,30.90
2024-03-10T12:56:50.082Z,30.90
2024-03-10T12:59:19.467Z,30.80
2024-03-10T13:01:49.040Z,30.80
2024-03-10T13:04:19.198Z,30.80
2024-03-10T13:06:49.226Z,30.80
2024-03-10T13:09:18.885Z,30.80
2024-03-10T13:11:48.391Z,30.70
2024-03-10T13:14:18.112Z,30.70
2024-03-10T13:16:47.547Z,30.70
2024-03-10T13:19:19.627Z,30.60
2024-03-10T13:21:48.947Z,30.60
2024-03-10T13:24:18.351Z,30.60
2024-03-10T13:26:47.957Z,30.60
2024-03-10T13:29:19.035Z,30.50
2024-03-10T13:31:48.389Z,30.50
2024-03-10T13:34:17.826Z,30.40
2024-03-10T13:36:47.235Z,30.50
2024-03-10T13:39:17.482Z,30.40
2024-03-10T13:41:48.337Z,30.40
2024-03-10T13:44:23.635Z,30.40
2024-03-10T13:46:59.303Z,30.40
2024-03-10T13:49:29.344Z,30.40
2024-03-10T13:51:59.733Z,30.30
2024-03-10T13:54:29.223Z,30.30
2024-03-10T13:56:58.703Z,30.30
2024-03-10T13:59:28.251Z,30.30
2024-03-10T14:01:58.672Z,30.30
2024-03-10T14:04:34.038Z,30.30
2024-03-10T14:07:03.483Z,30.30
2024-03-10T14:09:33.260Z,30.30
2024-03-10T14:12:05.872Z,30.20
2024-03-10T14:14:36.547Z,30.20
2024-03-10T14:17:06.272Z,30.20
2024-03-10T14:19:39.262Z,30.20
2024-03-10T14:22:08.989Z,30.20
2024-03-10T14:24:40.982Z,30.10
2024-03-10T14:27:10.844Z,30.10
2024-03-10T14:29:41.543Z,30.10
2024-03-10T14:32:11.033Z,30.10
2024-03-10T14:34:43.303Z,30.10
2024-03-10T14:37:12.760Z,30.10
2024-03-10T14:39:42.467Z,30.00
2024-03-10T14:42:12.108Z,30.00
2024-03-10T14:44:41.576Z,29.90
2024-03-10T14:47:11.588Z,29.90
2024-03-10T14:49:41.365Z,29.90
2024-03-10T14:52:13.967Z,29.80
2024-03-10T14:54:43.878Z,29.80
2024-03-10T14:57:13.439Z,29.80
2024-03-10T14:59:45.558Z,29.70
2024-03-10T15:02:16.469Z,29.70
2024-03-10T15:04:45.949Z,29.70
2024-03-10T15:07:17.515Z,29.70
2024-03-10T15:09:47.541Z,29.70
2024-03-10T15:12:18.523Z,29.70
2024-03-10T15:14:48.711Z,29.60
2024-03-10T15:17:19.463Z,29.60
2024-03-10T15:19:48.939Z,29.60
2024-03-10T15:22:20.170Z,29.60
2024-03-10T15:24:49.788Z,29.60
2024-03-10T15:27:20.064Z,29.60
2024-03-10T15:29:52.512Z,29.60
2024-03-10T15:32:25.147Z,29.50
2024-03-10T15:34:54.608Z,29.50
2024-03-10T15:37:24.297Z,29.50
2024-03-10T15:39:53.855Z,29.50
2024-03-10T15:42:24.009Z,29.50
2024-03-10T15:44:56.552Z,29.50
2024-03-10T15:47:25.930Z,29.50
2024-03-10T15:49:56.232Z,29.50
2024-03-10T15:52:29.692Z,29.50
2024-03-10T15:54:59.553Z,29.40
2024-03-10T15:57:29.136Z,29.40
2024-03-10T15:59:58.529Z,29.40
2024-03-10T16:02:28.230Z,29.30
2024-03-10T16:04:58.145Z,29.30
2024-03-10T16:07:27.576Z,29.30
2024-03-10T16:09:57.189Z,29.30
2024-03-10T16:12:31.373Z,29.10
2024-03-10T16:15:01.068Z,29.10
2024-03-10T16:17:34.966Z,29.00
2024-03-10T16:20:05.382Z,29.00
2024-03-10T16:22:34.820Z,29.00
2024-03-10T16:25:04.450Z,28.90
2024-03-10T16:27:34.146Z,28.90
2024-03-10T16:30:03.697Z,28.80
2024-03-10T16:32:33.780Z,28.80
2024-03-10T16:35:03.218Z,28.80
2024-03-10T16:37:32.834Z,28.80
2024-03-10T16:40:03.235Z,28.80
2024-03-10T16:42:33.129Z,28.80
2024-03-10T16:45:08.640Z,28.80
2024-03-10T16:47:38.679Z,28.80
2024-03-10T16:50:11.879Z,28.80
2024-03-10T16:52:43.088Z,28.80
2024-03-10T16:55:15.729Z,28.70
2024-03-10T16:57:45.069Z,28.70
2024-03-10T17:00:17.924Z,28.70
2024-03-10T17:02:50.331Z,28.70
2024-03-10T17:05:21.953Z,28.60
2024-03-10T17:07:52.588Z,28.60
2024-03-10T17:10:22.218Z,28.60
2024-03-10T17:12:51.686Z,28.50
2024-03-10T17:15:21.440Z,28.50
2024-03-10T17:17:52.977Z,28.50
2024-03-10T17:20:23.746Z,28.50
2024-03-10T17:22:53.364Z,28.50
2024-03-10T17:25:23.012Z,28.50
2024-03-10T17:27:52.392Z,28.40
2024-03-10T17:30:21.799Z,28.40
2024-03-10T17:32:53.748Z,28.40
2024-03-10T17:35:25.826Z,28.40
2024-03-10T17:37:55.274Z,28.40
2024-03-10T17:40:29.526Z,28.30
2024-03-10T17:42:59.308Z,28.40
2024-03-10T17:45:28.794Z,28.30
2024-03-10T17:47:58.349Z,28.40
2024-03-10T17:50:28.009Z,28.40
2024-03-10T17:52:58.989Z,28.40
2024-03-10T17:55:28.461Z,28.40
2024-03-10T17:57:57.964Z,28.40
2024-03-10T18:00:28.506Z,28.30
2024-03-10T18:02:58.857Z,28.30
2024-03-10T18:05:29.031Z,28.30
2024-03-10T18:07:59.534Z,28.20
2024-03-10T18:10:29.470Z,28.20
2024-03-10T18:12:58.893Z,28.20
2024-03-10T18:15:29.309Z,28.20
2024-03-10T18:18:01.245Z,28.20
2024-03-10T18:20:30.975Z,28.20
2024-03-10T18:23:00.667Z,28.20
2024-03-10T18:25:36.486Z,28.20
2024-03-10T18:28:06.261Z,28.30
2024-03-10T18:30:35.770Z,28.20
2024-03-10T18:33:08.659Z,28.20
2024-03-10T18:35:38.390Z,28.10
2024-03-10T18:38:08.114Z,28.20
2024-03-10T18:40:37.572Z,28.10
2024-03-10T18:43:07.194Z,28.10
2024-03-10T18:45:36.667Z,28.10
2024-03-10T18:48:06.670Z,28.20
2024-03-10T18:50:36.989Z,28.20
2024-03-10T18:53:06.858Z,28.20
2024-03-10T18:55:36.218Z,28.20
2024-03-10T18:58:06.146Z,28.20
2024-03-10T19:00:36.726Z,28.30
2024-03-10T19:03:09.084Z,28.20
2024-03-10T19:05:39.077Z,28.30
2024-03-10T19:08:08.789Z,28.20
2024-03-10T19:10:38.461Z,28.30
2024-03-10T19:13:09.887Z,28.30
2024-03-10T19:15:40.663Z,28.30
2024-03-10T19:18:10.535Z,28.30
2024-03-10T19:20:41.366Z,28.30
2024-03-10T19:23:11.665Z,28.30
2024-03-10T19:25:41.041Z,28.30
2024-03-10T19:28:10.934Z,28.30
2024-03-10T19:30:40.366Z,28.30
2024-03-10T19:33:11.388Z,28.30
2024-03-10T19:35:40.827Z,28.30
2024-03-10T19:38:12.882Z,28.30
2024-03-10T19:40:42.391Z,28.30
2024-03-10T19:43:14.744Z,28.30
2024-03-10T19:45:44.377Z,28.30
2024-03-10T19:48:19.729Z,28.30
2024-03-10T19:50:53.740Z,28.30
2024-03-10T19:53:23.871Z,28.30
2024-03-10T19:55:55.759Z,28.30
2024-03-10T19:58:29.246Z,28.30
2024-03-10T20:00:58.734Z,28.30
2024-03-10T20:03:28.275Z,28.20
2024-03-10T20:05:57.681Z,28.10
2024-03-10T20:08:27.096Z,28.10
2024-03-10T20:10:57.472Z,28.10
2024-03-10T20:13:26.892Z,28.10
2024-03-10T20:15:56.745Z,28.00
2024-03-10T20:18:28.340Z,28.00
2024-03-10T20:20:57.929Z,28.00
2024-03-10T20:23:27.970Z,27.90
2024-03-10T20:25:58.862Z,27.90
2024-03-10T20:28:28.428Z,27.90
2024-03-10T20:30:58.791Z,27.80
2024-03-10T20:33:28.791Z,27.90
2024-03-10T20:35:58.300Z,27.80
2024-03-10T20:38:28.338Z,27.80
2024-03-10T20:40:59.177Z,27.70
2024-03-10T20:43:28.593Z,27.70
2024-03-10T20:46:00.121Z,27.70
2024-03-10T20:48:34.162Z,27.70
2024-03-10T20:51:03.880Z,27.70
2024-03-10T20:53:33.454Z,27.60
2024-03-10T20:56:02.985Z,27.60
2024-03-10T20:58:32.413Z,27.60
2024-03-10T21:01:01.956Z,27.50
2024-03-10T21:03:31.350Z,27.50
2024-03-10T21:06:00.714Z,27.60
2024-03-10T21:08:31.969Z,27.50
2024-03-10T21:11:01.553Z,27.60
2024-03-10T21:13:31.796Z,27.60
2024-03-10T21:16:04.997Z,27.60
2024-03-10T21:18:35.424Z,27.60
2024-03-10T21:21:07.304Z,27.60
2024-03-10T21:23:36.808Z,27.60
2024-03-10T21:26:06.671Z,27.60
2024-03-10T21:28:36.164Z,27.60
2024-03-10T21:31:05.763Z,27.60
2024-03-10T21:33:35.918Z,27.60
2024-03-10T21:36:06.698Z,27.50
2024-03-10T21:38:36.734Z,27.50
2024-03-10T21:41:07.698Z,27.50
2024-03-10T21:43:37.324Z,27.50
2024-03-10T21:46:06.980Z,27.50
2024-03-10T21:48:36.529Z,27.50
2024-03-10T21:51:08.468Z,27.50
2024-03-10T21:53:38.359Z,27.40
2024-03-10T21:56:08.678Z,27.40
2024-03-10T21:58:39.083Z,27.40
2024-03-10T22:01:08.723Z,27.40
2024-03-10T22:03:38.118Z,27.30
2024-03-10T22:06:07.804Z,27.30
2024-03-10T22:08:37.791Z,27.30
2024-03-10T22:11:08.186Z,27.30
2024-03-10T22:13:37.883Z,27.30
2024-03-10T22:16:07.974Z,27.20
2024-03-10T22:18:37.675Z,27.30
2024-03-10T22:21:07.391Z,27.20
2024-03-10T22:23:36.850Z,27.30
2024-03-10T22:26:08.436Z,27.20
2024-03-10T22:28:37.873Z,27.20
2024-03-10T22:31:07.668Z,27.20
2024-03-10T22:33:37.667Z,27.20
2024-03-10T22:36:07.886Z,27.10
2024-03-10T22:38:37.668Z,27.10
2024-03-10T22:41:07.273Z,27.10
2024-03-10T22:43:38.186Z,27.10
2024-03-10T22:46:07.837Z,27.10
2024-03-10T22:48:37.980Z,27.10
2024-03-10T22:51:08.015Z,27.10
2024-03-10T22:53:37.989Z,27.10
2024-03-10T22:56:08.245Z,27.10
2024-03-10T22:58:37.747Z,27.10
2024-03-10T23:01:13.358Z,27.10
2024-03-10T23:03:45.495Z,27.10
2024-03-10T23:06:15.184Z,27.10
2024-03-10T23:08:44.784Z,27.00
2024-03-10T23:11:14.289Z,27.00
2024-03-10T23:13:43.821Z,27.00
2024-03-10T23:16:13.602Z,27.00
2024-03-10T23:18:45.307Z,27.00
2024-03-10T23:21:15.002Z,26.90
2024-03-10T23:23:44.504Z,26.90
2024-03-10T23:26:14.596Z,26.90
2024-03-10T23:28:45.234Z,26.80
2024-03-10T23:31:14.696Z,26.80
2024-03-10T23:33:44.258Z,26.80
2024-03-10T23:36:22.077Z,26.80
2024-03-10T23:38:52.188Z,26.70
2024-03-10T23:41:22.832Z,26.70
2024-03-10T23:43:53.546Z,26.60
2024-03-10T23:46:23.718Z,26.70
2024-03-10T23:48:54.229Z,26.70
2024-03-10T23:51:23.788Z,26.70
2024-03-10T23:53:53.923Z,26.60
2024-03-10T23:56:24.078Z,26.70
2024-03-10T23:58:56.207Z,26.70
